createdAt,value
2022-10-01T00:02:40.412Z,9.91
2022-10-01T00:05:24.963Z,9.92
2022-10-01T00:08:09.783Z,9.98
2022-10-01T00:10:54.587Z,9.96
2022-10-01T00:13:39.302Z,9.92
2022-10-01T00:16:24.216Z,9.94
2022-10-01T00:19:08.909Z,9.89
2022-10-01T00:21:53.763Z,9.84
2022-10-01T00:24:38.546Z,9.84
2022-10-01T00:27:23.320Z,9.82
2022-10-01T00:30:08.114Z,9.75
2022-10-01T00:32:52.963Z,9.71
2022-10-01T00:35:37.800Z,9.68
2022-10-01T00:38:22.476Z,9.65
2022-10-01T00:41:07.363Z,9.62
2022-10-01T00:43:52.164Z,9.61
2022-10-01T00:46:36.938Z,9.54
2022-10-01T00:49:21.555Z,9.56
2022-10-01T00:52:06.367Z,9.62
2022-10-01T00:54:50.976Z,9.65
2022-10-01T00:57:35.907Z,9.69
2022-10-01T01:00:20.735Z,9.74
2022-10-01T01:03:05.437Z,9.77
2022-10-01T01:05:50.257Z,9.78
2022-10-01T01:08:35.080Z,9.76
2022-10-01T01:11:19.899Z,9.78
2022-10-01T01:14:04.567Z,9.74
2022-10-01T01:16:49.350Z,9.68
2022-10-01T01:19:33.989Z,9.67
2022-10-01T01:22:18.848Z,9.63
2022-10-01T01:25:03.614Z,9.64
2022-10-01T01:27:48.424Z,9.70
2022-10-01T01:30:33.031Z,9.66
2022-10-01T01:33:17.836Z,9.62
2022-10-01T01:36:02.617Z,9.58
2022-10-01T01:38:47.407Z,9.58
2022-10-01T01:41:32.572Z,9.56
2022-10-01T01:44:17.536Z,9.51
2022-10-01T01:47:02.352Z,9.41
2022-10-01T01:49:47.037Z,9.40
2022-10-01T01:52:31.834Z,9.37
2022-10-01T01:55:16.501Z,9.40
2022-10-01T01:58:01.302Z,9.43
2022-10-01T02:00:46.033Z,9.42
2022-10-01T02:03:30.789Z,9.44
2022-10-01T02:06:15.645Z,9.46
2022-10-01T02:09:00.247Z,9.48
2022-10-01T02:11:45.125Z,9.49
2022-10-01T02:14:29.802Z,9.51
2022-10-01T02:17:14.599Z,9.51
2022-10-01T02:19:59.312Z,9.50
2022-10-01T02:22:44.002Z,9.49
2022-10-01T02:25:28.704Z,9.52
2022-10-01T02:28:13.544Z,9.51
2022-10-01T02:30:58.236Z,9.51
2022-10-01T02:33:43.072Z,9.48
2022-10-01T02:36:27.848Z,9.57
2022-10-01T02:39:12.573Z,9.63
2022-10-01T02:41:57.389Z,9.84
2022-10-01T02:44:42.164Z,9.93
2022-10-01T02:47:26.876Z,9.91
2022-10-01T02:50:11.585Z,9.81
2022-10-01T02:52:56.261Z,9.70
2022-10-01T02:55:41.083Z,9.66
2022-10-01T02:58:25.807Z,9.61
2022-10-01T03:01:10.529Z,9.58
2022-10-01T03:03:55.408Z,9.54
2022-10-01T03:06:40.201Z,9.46
2022-10-01T03:09:25.011Z,9.37
2022-10-01T03:12:09.942Z,9.30
2022-10-01T03:14:54.813Z,9.30
2022-10-01T03:17:39.624Z,9.28
2022-10-01T03:20:24.271Z,9.29
2022-10-01T03:23:08.965Z,9.39
2022-10-01T03:25:53.725Z,9.43
2022-10-01T03:28:38.458Z,9.44
2022-10-01T03:31:23.188Z,9.37
2022-10-01T03:34:07.996Z,9.34
2022-10-01T03:36:52.788Z,9.21
2022-10-01T03:39:37.489Z,9.15
2022-10-01T03:42:22.493Z,9.05
2022-10-01T03:45:07.268Z,8.99
2022-10-01T03:47:52.140Z,8.84
2022-10-01T03:50:36.791Z,8.82
2022-10-01T03:53:21.659Z,8.81
2022-10-01T03:56:06.500Z,8.77
2022-10-01T03:58:51.204Z,8.75
2022-10-01T04:01:36.321Z,8.71
2022-10-01T04:04:21.688Z,8.67
2022-10-01T04:07:06.695Z,8.66
2022-10-01T04:09:51.383Z,8.67
2022-10-01T04:12:36.139Z,8.71
2022-10-01T04:15:20.745Z,8.76
2022-10-01T04:18:05.465Z,8.79
2022-10-01T04:20:50.240Z,8.81
2022-10-01T04:23:34.933Z,8.79
2022-10-01T04:26:19.596Z,8.71
2022-10-01T04:29:04.326Z,8.63
2022-10-01T04:31:49.079Z,8.61
2022-10-01T04:34:33.810Z,8.59
2022-10-01T04:37:18.668Z,8.60
2022-10-01T04:40:03.437Z,8.61
2022-10-01T04:42:48.247Z,8.67
2022-10-01T04:45:33.028Z,8.74
2022-10-01T04:48:17.821Z,8.79
2022-10-01T04:51:02.576Z,8.82
2022-10-01T04:53:47.246Z,8.89
2022-10-01T04:56:31.911Z,8.83
2022-10-01T04:59:16.742Z,8.74
2022-10-01T05:02:01.625Z,8.64
2022-10-01T05:04:46.388Z,8.60
2022-10-01T05:07:31.150Z,8.59
2022-10-01T05:10:15.829Z,8.58
2022-10-01T05:13:00.808Z,8.61
2022-10-01T05:15:45.441Z,8.75
2022-10-01T05:18:30.397Z,8.78
2022-10-01T05:21:15.163Z,8.82
2022-10-01T05:24:00.003Z,8.84
2022-10-01T05:26:44.735Z,8.83
2022-10-01T05:29:29.543Z,8.82
2022-10-01T05:32:14.411Z,8.85
2022-10-01T05:34:59.272Z,8.78
2022-10-01T05:37:44.074Z,8.72
2022-10-01T05:40:28.833Z,8.70
2022-10-01T05:43:13.486Z,8.73
2022-10-01T05:45:58.186Z,8.69
2022-10-01T05:48:43.002Z,8.74
2022-10-01T05:51:27.805Z,8.86
2022-10-01T05:54:12.825Z,8.92
2022-10-01T05:56:57.385Z,9.06
2022-10-01T05:59:42.216Z,9.11
2022-10-01T06:02:26.894Z,9.17
2022-10-01T06:05:11.695Z,9.25
2022-10-01T06:07:56.659Z,9.26
2022-10-01T06:10:41.341Z,9.24
2022-10-01T06:13:26.144Z,9.27
2022-10-01T06:16:10.823Z,9.32
2022-10-01T06:18:55.591Z,9.28
2022-10-01T06:21:40.235Z,9.31
2022-10-01T06:24:24.929Z,9.38
2022-10-01T06:27:12.657Z,9.38
2022-10-01T06:29:57.395Z,9.37
2022-10-01T06:32:42.196Z,9.44
2022-10-01T06:35:27.014Z,9.50
2022-10-01T06:38:11.710Z,9.57
2022-10-01T06:40:56.377Z,9.61
2022-10-01T06:43:41.238Z,9.61
2022-10-01T06:46:25.803Z,9.64
2022-10-01T06:49:10.468Z,9.70
2022-10-01T06:51:55.149Z,9.70
2022-10-01T06:54:39.805Z,9.67
2022-10-01T06:57:24.568Z,9.63
2022-10-01T07:00:09.314Z,9.59
2022-10-01T07:02:54.064Z,9.61
2022-10-01T07:05:38.766Z,9.70
2022-10-01T07:08:23.496Z,9.73
2022-10-01T07:11:08.385Z,9.75
2022-10-01T07:13:54.695Z,9.79
2022-10-01T07:16:39.982Z,9.70
2022-10-01T07:19:24.901Z,9.66
2022-10-01T07:22:10.230Z,9.68
2022-10-01T07:24:54.941Z,9.63
2022-10-01T07:27:39.761Z,9.56
2022-10-01T07:30:24.662Z,9.52
2022-10-01T07:33:09.888Z,9.56
2022-10-01T07:35:54.599Z,9.63
2022-10-01T07:38:39.443Z,9.62
2022-10-01T07:41:24.169Z,9.62
2022-10-01T07:44:08.992Z,9.69
2022-10-01T07:46:53.597Z,9.66
2022-10-01T07:49:38.363Z,9.73
2022-10-01T07:52:23.142Z,9.80
2022-10-01T07:55:07.879Z,9.92
2022-10-01T07:57:52.663Z,10.08
2022-10-01T08:00:37.381Z,10.24
2022-10-01T08:03:22.172Z,10.34
2022-10-01T08:06:06.857Z,10.43
2022-10-01T08:08:51.606Z,10.47
2022-10-01T08:11:36.756Z,10.54
2022-10-01T08:14:22.173Z,10.61
2022-10-01T08:17:07.047Z,10.68
2022-10-01T08:19:51.780Z,10.65
2022-10-01T08:22:41.683Z,10.57
2022-10-01T08:25:27.038Z,10.57
2022-10-01T08:28:11.784Z,10.64
2022-10-01T08:30:56.634Z,10.74
2022-10-01T08:33:41.319Z,10.72
2022-10-01T08:36:26.119Z,10.57
2022-10-01T08:39:10.849Z,10.50
2022-10-01T08:41:55.576Z,10.42
2022-10-01T08:44:41.254Z,10.33
2022-10-01T08:47:26.557Z,10.12
2022-10-01T08:50:11.399Z,10.00
2022-10-01T08:52:56.425Z,9.76
2022-10-01T08:55:41.816Z,9.69
2022-10-01T08:58:26.508Z,9.60
2022-10-01T09:01:11.492Z,9.61
2022-10-01T09:03:56.207Z,9.63
2022-10-01T09:06:41.096Z,9.65
2022-10-01T09:09:25.800Z,9.69
2022-10-01T09:12:10.546Z,9.73
2022-10-01T09:14:55.292Z,9.80
2022-10-01T09:17:40.061Z,9.85
2022-10-01T09:20:24.908Z,9.95
2022-10-01T09:23:09.649Z,10.03
2022-10-01T09:25:54.351Z,10.15
2022-10-01T09:28:39.198Z,10.21
2022-10-01T09:31:23.967Z,10.29
2022-10-01T09:34:08.608Z,10.32
2022-10-01T09:36:53.457Z,10.40
2022-10-01T09:39:38.321Z,10.54
2022-10-01T09:42:23.046Z,10.66
2022-10-01T09:45:07.903Z,10.69
2022-10-01T09:47:52.511Z,10.68
2022-10-01T09:50:37.293Z,10.68
2022-10-01T09:53:22.343Z,10.74
2022-10-01T09:56:07.310Z,10.79
2022-10-01T09:58:52.083Z,10.84
2022-10-01T10:01:37.465Z,10.83
2022-10-01T10:04:22.817Z,10.82
2022-10-01T10:07:07.566Z,10.83
2022-10-01T10:09:52.313Z,10.85
2022-10-01T10:12:37.029Z,10.86
2022-10-01T10:15:21.866Z,10.93
2022-10-01T10:18:06.664Z,10.94
2022-10-01T10:20:51.406Z,10.97
2022-10-01T10:23:36.099Z,10.94
2022-10-01T10:26:20.938Z,10.90
2022-10-01T10:29:05.616Z,10.89
2022-10-01T10:31:50.456Z,10.85
2022-10-01T10:34:35.352Z,10.82
2022-10-01T10:37:20.560Z,10.81
2022-10-01T10:40:05.242Z,10.75
2022-10-01T10:42:51.126Z,10.75
2022-10-01T10:45:35.853Z,10.69
2022-10-01T10:48:20.617Z,10.54
2022-10-01T10:51:05.389Z,10.50
2022-10-01T10:53:50.095Z,10.50
2022-10-01T10:56:34.965Z,10.45
2022-10-01T10:59:20.134Z,10.43
2022-10-01T11:02:04.902Z,10.44
2022-10-01T11:04:50.187Z,10.49
2022-10-01T11:07:34.926Z,10.51
2022-10-01T11:10:19.669Z,10.50
2022-10-01T11:13:04.389Z,10.49
2022-10-01T11:15:49.261Z,10.57
2022-10-01T11:18:34.405Z,10.54
2022-10-01T11:21:19.175Z,10.53
2022-10-01T11:24:03.904Z,10.52
2022-10-01T11:26:51.680Z,10.57
2022-10-01T11:29:37.971Z,10.47
2022-10-01T11:32:22.793Z,10.37
2022-10-01T11:35:07.555Z,10.39
2022-10-01T11:37:52.280Z,10.36
2022-10-01T11:40:36.951Z,10.32
2022-10-01T11:43:21.716Z,10.29
2022-10-01T11:46:06.519Z,10.33
2022-10-01T11:48:51.327Z,10.44
2022-10-01T11:51:36.135Z,10.44
2022-10-01T11:54:21.093Z,10.39
2022-10-01T11:57:05.760Z,10.35
2022-10-01T11:59:50.728Z,10.37
2022-10-01T12:02:35.409Z,10.31
2022-10-01T12:05:20.416Z,10.25
2022-10-01T12:08:05.157Z,10.30
2022-10-01T12:10:49.863Z,10.40
2022-10-01T12:13:34.572Z,10.54
2022-10-01T12:16:19.460Z,10.63
2022-10-01T12:19:04.309Z,10.68
2022-10-01T12:21:48.906Z,10.75
2022-10-01T12:24:33.687Z,10.69
2022-10-01T12:27:18.467Z,10.45
2022-10-01T12:30:03.386Z,10.32
2022-10-01T12:32:48.083Z,10.37
2022-10-01T12:35:32.962Z,10.48
2022-10-01T12:38:17.815Z,10.65
2022-10-01T12:41:02.616Z,10.77
2022-10-01T12:43:47.599Z,10.88
2022-10-01T12:46:32.470Z,10.96
2022-10-01T12:49:17.631Z,10.77
2022-10-01T12:52:02.258Z,10.60
2022-10-01T12:54:47.090Z,10.53
2022-10-01T12:57:31.816Z,10.61
2022-10-01T13:00:16.627Z,10.71
2022-10-01T13:03:01.275Z,10.75
2022-10-01T13:05:46.065Z,10.63
2022-10-01T13:08:30.863Z,10.66
2022-10-01T13:11:15.649Z,10.72
2022-10-01T13:14:00.409Z,10.76
2022-10-01T13:16:45.158Z,10.86
2022-10-01T13:19:29.949Z,10.98
2022-10-01T13:22:14.684Z,10.98
2022-10-01T13:24:59.391Z,10.97
2022-10-01T13:27:44.198Z,11.08
2022-10-01T13:30:28.926Z,11.14
2022-10-01T13:33:13.484Z,11.25
2022-10-01T13:35:58.287Z,11.19
2022-10-01T13:38:42.958Z,11.15
2022-10-01T13:41:27.745Z,11.11
2022-10-01T13:44:12.538Z,11.12
2022-10-01T13:46:57.236Z,11.16
2022-10-01T13:49:42.013Z,11.25
2022-10-01T13:52:26.756Z,11.18
2022-10-01T13:55:11.576Z,11.16
2022-10-01T13:57:56.288Z,11.14
2022-10-01T14:00:41.139Z,11.15
2022-10-01T14:03:25.821Z,11.26
2022-10-01T14:06:10.770Z,11.37
2022-10-01T14:08:55.765Z,11.51
2022-10-01T14:11:40.512Z,11.64
2022-10-01T14:14:25.263Z,11.72
2022-10-01T14:17:10.040Z,11.75
2022-10-01T14:19:54.812Z,11.76
2022-10-01T14:22:39.615Z,11.74
2022-10-01T14:25:24.326Z,11.59
2022-10-01T14:28:08.988Z,11.54
2022-10-01T14:30:53.938Z,11.59
2022-10-01T14:33:38.535Z,11.58
2022-10-01T14:36:23.228Z,11.62
2022-10-01T14:39:07.827Z,11.66
2022-10-01T14:41:52.553Z,11.67
2022-10-01T14:44:37.366Z,11.63
2022-10-01T14:47:22.080Z,11.58
2022-10-01T14:50:06.809Z,11.66
2022-10-01T14:52:51.590Z,11.76
2022-10-01T14:55:36.362Z,11.82
2022-10-01T14:58:20.969Z,11.91
2022-10-01T15:01:05.630Z,11.99
2022-10-01T15:03:50.375Z,12.02
2022-10-01T15:06:35.251Z,12.12
2022-10-01T15:09:20.498Z,12.16
2022-10-01T15:12:05.066Z,12.17
2022-10-01T15:14:49.842Z,12.24
2022-10-01T15:17:34.618Z,12.31
2022-10-01T15:20:19.505Z,12.29
2022-10-01T15:23:04.308Z,12.33
2022-10-01T15:25:49.129Z,12.35
2022-10-01T15:28:33.774Z,12.37
2022-10-01T15:31:18.629Z,12.32
2022-10-01T15:34:03.419Z,12.31
2022-10-01T15:36:48.158Z,12.27
2022-10-01T15:39:32.850Z,12.24
2022-10-01T15:42:17.532Z,12.24
2022-10-01T15:45:02.335Z,12.23
2022-10-01T15:47:47.050Z,12.07
2022-10-01T15:50:31.942Z,12.00
2022-10-01T15:53:16.745Z,11.88
2022-10-01T15:56:01.604Z,11.76
2022-10-01T15:58:46.382Z,11.70
2022-10-01T16:01:31.134Z,11.74
2022-10-01T16:04:15.823Z,11.74
2022-10-01T16:07:00.545Z,11.82
2022-10-01T16:09:45.218Z,11.87
2022-10-01T16:12:29.901Z,11.91
2022-10-01T16:15:14.816Z,11.94
2022-10-01T16:17:59.574Z,11.95
2022-10-01T16:20:48.989Z,11.98
2022-10-01T16:23:35.275Z,12.04
2022-10-01T16:26:20.180Z,12.10
2022-10-01T16:29:04.789Z,12.11
2022-10-01T16:31:49.559Z,12.08
2022-10-01T16:34:34.372Z,12.09
2022-10-01T16:37:18.947Z,12.13
2022-10-01T16:40:03.680Z,12.21
2022-10-01T16:42:48.473Z,12.25
2022-10-01T16:45:33.262Z,12.20
2022-10-01T16:48:17.983Z,12.15
2022-10-01T16:51:02.769Z,12.15
2022-10-01T16:53:47.686Z,12.15
2022-10-01T16:56:32.374Z,12.13
2022-10-01T16:59:17.164Z,12.14
2022-10-01T17:02:01.816Z,12.15
2022-10-01T17:04:46.590Z,12.10
2022-10-01T17:07:31.386Z,11.99
2022-10-01T17:10:16.202Z,11.86
2022-10-01T17:13:00.945Z,11.78
2022-10-01T17:15:45.720Z,11.81
2022-10-01T17:18:30.600Z,11.83
2022-10-01T17:21:15.318Z,11.88
2022-10-01T17:24:00.191Z,11.90
2022-10-01T17:26:44.856Z,11.97
2022-10-01T17:29:29.564Z,11.91
2022-10-01T17:32:14.201Z,12.00
2022-10-01T17:34:59.024Z,12.02
2022-10-01T17:37:43.665Z,12.07
2022-10-01T17:40:28.410Z,12.12
2022-10-01T17:43:13.155Z,12.15
2022-10-01T17:45:58.041Z,12.18
2022-10-01T17:48:42.761Z,12.22
2022-10-01T17:51:27.504Z,12.23
2022-10-01T17:54:12.253Z,12.27
2022-10-01T17:56:57.013Z,12.31
2022-10-01T17:59:41.829Z,12.33
2022-10-01T18:02:43.090Z,12.29
2022-10-01T18:05:28.483Z,12.29
2022-10-01T18:08:13.256Z,12.34
2022-10-01T18:10:57.969Z,12.34
2022-10-01T18:13:42.751Z,12.34
2022-10-01T18:16:27.645Z,12.25
2022-10-01T18:22:17.752Z,12.31
2022-10-01T18:25:02.571Z,12.35
2022-10-01T18:27:47.338Z,12.40
2022-10-01T18:30:32.202Z,12.48
2022-10-01T18:33:17.071Z,12.38
2022-10-01T18:36:02.143Z,12.32
2022-10-01T18:38:47.306Z,12.34
2022-10-01T18:41:32.412Z,12.39
2022-10-01T18:44:20.261Z,12.29
2022-10-01T18:47:05.719Z,12.19
2022-10-01T18:49:50.436Z,12.11
2022-10-01T18:52:35.283Z,12.12
2022-10-01T18:55:21.391Z,12.15
2022-10-01T18:58:06.233Z,12.24
2022-10-01T19:00:51.009Z,12.31
2022-10-01T19:03:35.698Z,12.32
2022-10-01T19:06:20.579Z,12.43
2022-10-01T19:09:05.183Z,12.48
2022-10-01T19:11:49.966Z,12.47
2022-10-01T19:14:34.713Z,12.44
2022-10-01T19:17:19.565Z,12.35
2022-10-01T19:20:04.167Z,12.34
2022-10-01T19:22:48.951Z,12.28
2022-10-01T19:25:33.804Z,12.28
2022-10-01T19:28:18.521Z,12.38
2022-10-01T19:31:03.907Z,12.44
2022-10-01T19:33:48.655Z,12.51
2022-10-01T19:36:34.678Z,12.54
2022-10-01T19:39:19.731Z,12.60
2022-10-01T19:42:04.411Z,12.64
2022-10-01T19:44:49.130Z,12.66
2022-10-01T19:47:33.955Z,12.66
2022-10-01T19:50:18.697Z,12.69
2022-10-01T19:53:03.435Z,12.71
2022-10-01T19:55:48.342Z,12.73
2022-10-01T19:58:33.140Z,12.72
2022-10-01T20:01:18.016Z,12.73
2022-10-01T20:04:02.835Z,12.73
2022-10-01T20:06:47.861Z,12.70
2022-10-01T20:09:32.622Z,12.62
2022-10-01T20:12:17.497Z,12.62
2022-10-01T20:15:02.202Z,12.66
2022-10-01T20:17:47.047Z,12.66
2022-10-01T20:20:31.730Z,12.65
2022-10-01T20:23:16.502Z,12.67
2022-10-01T20:26:01.408Z,12.67
2022-10-01T20:28:46.033Z,12.67
2022-10-01T20:31:30.776Z,12.74
2022-10-01T20:34:15.422Z,12.73
2022-10-01T20:37:00.129Z,12.79
2022-10-01T20:39:44.931Z,12.82
2022-10-01T20:42:29.650Z,12.82
2022-10-01T20:45:14.368Z,12.85
2022-10-01T20:47:59.192Z,12.80
2022-10-01T20:50:43.883Z,12.82
2022-10-01T20:53:28.701Z,12.81
2022-10-01T20:56:13.391Z,12.77
2022-10-01T20:58:58.162Z,12.80
2022-10-01T21:01:43.001Z,12.77
2022-10-01T21:04:27.755Z,12.77
2022-10-01T21:07:12.614Z,12.80
2022-10-01T21:09:57.311Z,12.83
2022-10-01T21:12:42.155Z,12.83
2022-10-01T21:15:26.737Z,12.83
2022-10-01T21:18:11.608Z,12.79
2022-10-01T21:20:56.247Z,12.86
2022-10-01T21:23:41.050Z,12.86
2022-10-01T21:26:25.787Z,12.91
2022-10-01T21:29:10.437Z,12.97
2022-10-01T21:31:55.307Z,12.99
2022-10-01T21:34:40.082Z,12.94
2022-10-01T21:37:24.942Z,12.91
2022-10-01T21:40:09.655Z,12.89
2022-10-01T21:42:54.437Z,12.85
2022-10-01T21:45:39.354Z,12.85
2022-10-01T21:48:24.482Z,12.87
2022-10-01T21:51:09.318Z,12.82
2022-10-01T21:53:54.139Z,12.84
2022-10-01T21:56:39.179Z,12.81
2022-10-01T21:59:24.367Z,12.80
2022-10-01T22:02:09.398Z,12.85
2022-10-01T22:04:53.926Z,12.92
2022-10-01T22:07:38.839Z,12.91
2022-10-01T22:10:23.635Z,12.89
2022-10-01T22:13:08.320Z,12.87
2022-10-01T22:15:53.090Z,12.89
2022-10-01T22:18:37.860Z,12.92
2022-10-01T22:21:22.786Z,12.95
2022-10-01T22:24:07.598Z,12.98
2022-10-01T22:26:52.341Z,13.06
2022-10-01T22:29:37.072Z,13.08
2022-10-01T22:32:21.856Z,13.05
2022-10-01T22:35:06.518Z,13.10
2022-10-01T22:37:51.323Z,13.10
2022-10-01T22:40:35.989Z,13.16
2022-10-01T22:43:20.834Z,13.16
2022-10-01T22:46:05.609Z,13.13
2022-10-01T22:48:50.295Z,13.14
2022-10-01T22:51:35.059Z,13.16
2022-10-01T22:54:19.724Z,13.16
2022-10-01T22:57:04.617Z,13.15
2022-10-01T22:59:49.263Z,13.23
2022-10-01T23:02:33.973Z,13.23
2022-10-01T23:05:18.716Z,13.29
2022-10-01T23:08:03.508Z,13.30
2022-10-01T23:10:48.162Z,13.32
2022-10-01T23:13:33.014Z,13.29
2022-10-01T23:16:17.802Z,13.26
2022-10-01T23:19:02.515Z,13.23
2022-10-01T23:21:47.180Z,13.26
2022-10-01T23:24:31.859Z,13.23
2022-10-01T23:27:16.624Z,13.28
2022-10-01T23:30:01.458Z,13.35
2022-10-01T23:32:46.232Z,13.37
2022-10-01T23:35:31.026Z,13.39
2022-10-01T23:38:15.673Z,13.36
2022-10-01T23:41:00.272Z,13.36
2022-10-01T23:43:45.155Z,13.38
2022-10-01T23:46:29.924Z,13.39
2022-10-01T23:49:14.699Z,13.39
2022-10-01T23:51:59.512Z,13.41
2022-10-01T23:54:44.191Z,13.48
2022-10-01T23:57:28.892Z,13.55
